Kezdőlap
METAR-TAF:

METAR-TAF

Repülőterek :

Port Hawkesbury, Új-Skócia, Kanada

földrajzi szélesség: 45-40N, földrajzi hosszúság: 061-23W, magasság: 114 m

Jelenlegi meteorológiai megfigyelések

A jelentés 45 perccel ezelõtt készült, 06:00 UTC
Észak-északnyugati szél 8 kt széllökések: 15 kt, nyugat-északnyugati és északi között változik
Hőmérséklet 3°C
Páratartalom 93%
Légköri nyomás 994 hPa
Látótávolság: 14.5 km
Szakadozott felhőzet 1600 lábon
Borult 2100 lábon
enyhe esõ

METAR: CYPD 220600Z AUTO 33008G15KT 300V010 9SM -RA BKN016 OVC021 03/02 A2935 RMK SLP943

Idő: 03:45 (06:45 UTC)


TAF: hiányzik

Meteorológiai megfigyelések és előrejelzések több, mint 4000 repülőtéren (METAR és TAF jelentéseket).

A térképen piros és sárga pontok jelzik az elérhető meteorológiai állomásokat.

Mozgassa az egeret a pont fölött, hogy megjelenjen az állomás neve.

Azután kattintson az időjárási megfigyelések és előrejelzések megtekintéséhez.

A térkép megváltoztatása: kattintson a fekete keresztel jelölt zöld gombra ráközelítéshez, a vonallal jelölt zöld gombra távolításhoz, vagy a zöld nyilakra a szomszédos térképek eléréséhez.


METAR-TAF: